sensor_id;sensor_type;location;lat;lon;timestamp;P1;durP1;ratioP1;P2;durP2;ratioP2
60336;SDS011;46978;50.288;28.624;2024-03-06T00:00:16;24.92;;;14.56;;
60336;SDS011;46978;50.288;28.624;2024-03-06T00:01:18;25.07;;;13.77;;
60336;SDS011;46978;50.288;28.624;2024-03-06T00:02:19;22.63;;;14.17;;
60336;SDS011;46978;50.288;28.624;2024-03-06T00:03:21;24.25;;;14.08;;
60336;SDS011;46978;50.288;28.624;2024-03-06T00:04:22;21.06;;;14.29;;
60336;SDS011;46978;50.288;28.624;2024-03-06T00:05:24;23.61;;;13.90;;
60336;SDS011;46978;50.288;28.624;2024-03-06T00:06:25;25.54;;;14.39;;
60336;SDS011;46978;50.288;28.624;2024-03-06T00:07:27;21.01;;;13.82;;
60336;SDS011;46978;50.288;28.624;2024-03-06T00:08:29;21.66;;;13.66;;
60336;SDS011;46978;50.288;28.624;2024-03-06T00:09:30;24.04;;;14.14;;
60336;SDS011;46978;50.288;28.624;2024-03-06T00:10:32;23.45;;;14.19;;
60336;SDS011;46978;50.288;28.624;2024-03-06T00:11:34;27.06;;;14.46;;
60336;SDS011;46978;50.288;28.624;2024-03-06T00:12:36;21.55;;;12.91;;
60336;SDS011;46978;50.288;28.624;2024-03-06T00:13:37;24.01;;;14.52;;
60336;SDS011;46978;50.288;28.624;2024-03-06T00:14:39;22.16;;;14.48;;
60336;SDS011;46978;50.288;28.624;2024-03-06T00:15:40;27.06;;;14.89;;
60336;SDS011;46978;50.288;28.624;2024-03-06T00:16:42;23.54;;;14.54;;
60336;SDS011;46978;50.288;28.624;2024-03-06T00:17:44;22.36;;;13.77;;
60336;SDS011;46978;50.288;28.624;2024-03-06T00:18:46;22.42;;;13.09;;
60336;SDS011;46978;50.288;28.624;2024-03-06T00:19:48;23.52;;;13.41;;
60336;SDS011;46978;50.288;28.624;2024-03-06T00:20:49;24.10;;;14.27;;
60336;SDS011;46978;50.288;28.624;2024-03-06T00:21:51;24.48;;;14.26;;
60336;SDS011;46978;50.288;28.624;2024-03-06T00:22:52;21.62;;;14.39;;
60336;SDS011;46978;50.288;28.624;2024-03-06T00:23:54;23.37;;;14.15;;
60336;SDS011;46978;50.288;28.624;2024-03-06T00:24:55;24.73;;;13.84;;
60336;SDS011;46978;50.288;28.624;2024-03-06T00:25:57;22.26;;;13.60;;
60336;SDS011;46978;50.288;28.624;2024-03-06T00:26:59;26.73;;;14.28;;
60336;SDS011;46978;50.288;28.624;2024-03-06T00:28:00;21.03;;;13.95;;
60336;SDS011;46978;50.288;28.624;2024-03-06T00:29:02;20.87;;;13.66;;
60336;SDS011;46978;50.288;28.624;2024-03-06T00:30:04;24.59;;;13.91;;
60336;SDS011;46978;50.288;28.624;2024-03-06T00:31:06;26.67;;;14.46;;
60336;SDS011;46978;50.288;28.624;2024-03-06T00:32:08;19.32;;;12.47;;
60336;SDS011;46978;50.288;28.624;2024-03-06T00:33:10;24.16;;;14.34;;
60336;SDS011;46978;50.288;28.624;2024-03-06T00:34:11;23.21;;;14.34;;
60336;SDS011;46978;50.288;28.624;2024-03-06T00:35:13;23.36;;;14.13;;
60336;SDS011;46978;50.288;28.624;2024-03-06T00:36:15;24.39;;;13.43;;
60336;SDS011;46978;50.288;28.624;2024-03-06T00:37:17;22.99;;;13.95;;
60336;SDS011;46978;50.288;28.624;2024-03-06T00:38:18;26.24;;;14.34;;
60336;SDS011;46978;50.288;28.624;2024-03-06T00:39:20;25.81;;;14.59;;
60336;SDS011;46978;50.288;28.624;2024-03-06T00:40:21;24.91;;;14.26;;
60336;SDS011;46978;50.288;28.624;2024-03-06T00:41:23;26.98;;;14.94;;
60336;SDS011;46978;50.288;28.624;2024-03-06T00:42:25;25.72;;;14.96;;
60336;SDS011;46978;50.288;28.624;2024-03-06T00:43:26;25.76;;;14.37;;
60336;SDS011;46978;50.288;28.624;2024-03-06T00:44:27;29.87;;;15.39;;
60336;SDS011;46978;50.288;28.624;2024-03-06T00:45:29;25.14;;;14.26;;
60336;SDS011;46978;50.288;28.624;2024-03-06T00:46:31;23.66;;;14.41;;
60336;SDS011;46978;50.288;28.624;2024-03-06T00:47:32;28.59;;;15.67;;
60336;SDS011;46978;50.288;28.624;2024-03-06T00:48:34;24.58;;;14.76;;
60336;SDS011;46978;50.288;28.624;2024-03-06T00:49:35;26.09;;;15.30;;
60336;SDS011;46978;50.288;28.624;2024-03-06T00:50:37;26.06;;;14.60;;
60336;SDS011;46978;50.288;28.624;2024-03-06T00:51:39;28.16;;;15.57;;
60336;SDS011;46978;50.288;28.624;2024-03-06T00:54:02;30.14;;;16.44;;
60336;SDS011;46978;50.288;28.624;2024-03-06T00:55:04;28.17;;;16.00;;
60336;SDS011;46978;50.288;28.624;2024-03-06T00:56:07;27.93;;;15.63;;
60336;SDS011;46978;50.288;28.624;2024-03-06T00:57:09;26.09;;;15.12;;
60336;SDS011;46978;50.288;28.624;2024-03-06T00:58:11;29.68;;;16.09;;
60336;SDS011;46978;50.288;28.624;2024-03-06T00:59:12;28.50;;;16.56;;
60336;SDS011;46978;50.288;28.624;2024-03-06T01:00:14;31.05;;;17.24;;
60336;SDS011;46978;50.288;28.624;2024-03-06T01:01:17;30.79;;;17.91;;
60336;SDS011;46978;50.288;28.624;2024-03-06T01:02:18;33.51;;;17.57;;
60336;SDS011;46978;50.288;28.624;2024-03-06T01:03:19;31.41;;;17.44;;
60336;SDS011;46978;50.288;28.624;2024-03-06T01:04:22;29.23;;;16.55;;
60336;SDS011;46978;50.288;28.624;2024-03-06T01:05:24;29.97;;;15.99;;
60336;SDS011;46978;50.288;28.624;2024-03-06T01:06:25;30.14;;;16.56;;
60336;SDS011;46978;50.288;28.624;2024-03-06T01:07:27;27.69;;;15.52;;
60336;SDS011;46978;50.288;28.624;2024-03-06T01:08:28;27.40;;;14.94;;
60336;SDS011;46978;50.288;28.624;2024-03-06T01:09:30;29.94;;;16.98;;
60336;SDS011;46978;50.288;28.624;2024-03-06T01:10:31;26.91;;;16.27;;
60336;SDS011;46978;50.288;28.624;2024-03-06T01:11:33;26.50;;;15.31;;
60336;SDS011;46978;50.288;28.624;2024-03-06T01:12:35;24.66;;;15.25;;
60336;SDS011;46978;50.288;28.624;2024-03-06T01:13:45;24.59;;;14.03;;
60336;SDS011;46978;50.288;28.624;2024-03-06T01:14:47;23.43;;;15.07;;
60336;SDS011;46978;50.288;28.624;2024-03-06T01:15:48;24.01;;;14.84;;
60336;SDS011;46978;50.288;28.624;2024-03-06T01:16:50;24.71;;;14.20;;
60336;SDS011;46978;50.288;28.624;2024-03-06T01:17:52;26.99;;;14.89;;
60336;SDS011;46978;50.288;28.624;2024-03-06T01:18:53;25.48;;;14.35;;
60336;SDS011;46978;50.288;28.624;2024-03-06T01:19:55;24.91;;;15.01;;
60336;SDS011;46978;50.288;28.624;2024-03-06T01:20:56;23.64;;;14.16;;
60336;SDS011;46978;50.288;28.624;2024-03-06T01:21:58;24.71;;;14.24;;
60336;SDS011;46978;50.288;28.624;2024-03-06T01:23:00;25.53;;;13.86;;
60336;SDS011;46978;50.288;28.624;2024-03-06T01:24:01;25.58;;;14.61;;
60336;SDS011;46978;50.288;28.624;2024-03-06T01:25:03;23.06;;;13.64;;
60336;SDS011;46978;50.288;28.624;2024-03-06T01:26:05;21.33;;;13.84;;
60336;SDS011;46978;50.288;28.624;2024-03-06T01:27:07;23.01;;;13.93;;
60336;SDS011;46978;50.288;28.624;2024-03-06T01:28:09;24.57;;;13.80;;
60336;SDS011;46978;50.288;28.624;2024-03-06T01:29:11;25.18;;;15.67;;
60336;SDS011;46978;50.288;28.624;2024-03-06T01:30:13;22.54;;;14.48;;
60336;SDS011;46978;50.288;28.624;2024-03-06T01:31:14;26.22;;;15.21;;
60336;SDS011;46978;50.288;28.624;2024-03-06T01:32:16;23.76;;;13.91;;
60336;SDS011;46978;50.288;28.624;2024-03-06T01:33:18;25.07;;;15.16;;
60336;SDS011;46978;50.288;28.624;2024-03-06T01:34:19;22.66;;;13.85;;
60336;SDS011;46978;50.288;28.624;2024-03-06T01:35:21;24.03;;;14.67;;
60336;SDS011;46978;50.288;28.624;2024-03-06T01:36:23;25.06;;;14.91;;
60336;SDS011;46978;50.288;28.624;2024-03-06T01:37:24;24.12;;;13.87;;
60336;SDS011;46978;50.288;28.624;2024-03-06T01:38:26;27.25;;;13.95;;
60336;SDS011;46978;50.288;28.624;2024-03-06T01:39:27;25.01;;;14.92;;
60336;SDS011;46978;50.288;28.624;2024-03-06T01:40:29;27.16;;;14.60;;
60336;SDS011;46978;50.288;28.624;2024-03-06T01:41:31;26.64;;;15.61;;
60336;SDS011;46978;50.288;28.624;2024-03-06T01:42:32;23.05;;;14.16;;
60336;SDS011;46978;50.288;28.624;2024-03-06T01:43:37;22.66;;;14.77;;
60336;SDS011;46978;50.288;28.624;2024-03-06T01:44:38;24.06;;;14.98;;
60336;SDS011;46978;50.288;28.624;2024-03-06T01:45:40;26.50;;;15.74;;
60336;SDS011;46978;50.288;28.624;2024-03-06T01:46:42;26.21;;;14.71;;
60336;SDS011;46978;50.288;28.624;2024-03-06T01:47:47;26.97;;;15.24;;
60336;SDS011;46978;50.288;28.624;2024-03-06T01:48:48;26.36;;;15.18;;
60336;SDS011;46978;50.288;28.624;2024-03-06T01:49:50;27.15;;;16.62;;
60336;SDS011;46978;50.288;28.624;2024-03-06T01:50:55;28.69;;;16.85;;
60336;SDS011;46978;50.288;28.624;2024-03-06T01:51:59;29.74;;;18.31;;
60336;SDS011;46978;50.288;28.624;2024-03-06T01:53:02;27.71;;;16.33;;
60336;SDS011;46978;50.288;28.624;2024-03-06T01:54:04;25.21;;;16.53;;
60336;SDS011;46978;50.288;28.624;2024-03-06T01:55:06;27.63;;;16.70;;
60336;SDS011;46978;50.288;28.624;2024-03-06T01:56:09;28.18;;;16.35;;
60336;SDS011;46978;50.288;28.624;2024-03-06T01:57:11;27.19;;;16.91;;
60336;SDS011;46978;50.288;28.624;2024-03-06T01:58:14;28.73;;;17.51;;
60336;SDS011;46978;50.288;28.624;2024-03-06T01:59:17;29.14;;;18.66;;
60336;SDS011;46978;50.288;28.624;2024-03-06T02:00:21;28.48;;;18.43;;
60336;SDS011;46978;50.288;28.624;2024-03-06T02:01:23;32.61;;;18.25;;
60336;SDS011;46978;50.288;28.624;2024-03-06T02:02:25;29.02;;;17.87;;
60336;SDS011;46978;50.288;28.624;2024-03-06T02:03:27;24.76;;;14.75;;
60336;SDS011;46978;50.288;28.624;2024-03-06T02:04:29;23.91;;;15.58;;
60336;SDS011;46978;50.288;28.624;2024-03-06T02:05:31;25.27;;;14.95;;
60336;SDS011;46978;50.288;28.624;2024-03-06T02:06:33;26.47;;;15.76;;
60336;SDS011;46978;50.288;28.624;2024-03-06T02:07:35;25.64;;;15.87;;
60336;SDS011;46978;50.288;28.624;2024-03-06T02:08:39;25.92;;;15.22;;
60336;SDS011;46978;50.288;28.624;2024-03-06T02:09:40;22.67;;;14.09;;
60336;SDS011;46978;50.288;28.624;2024-03-06T02:10:42;23.20;;;14.32;;
60336;SDS011;46978;50.288;28.624;2024-03-06T02:11:45;24.73;;;14.74;;
60336;SDS011;46978;50.288;28.624;2024-03-06T02:12:48;23.31;;;13.54;;
60336;SDS011;46978;50.288;28.624;2024-03-06T02:13:50;23.44;;;14.11;;
60336;SDS011;46978;50.288;28.624;2024-03-06T02:14:51;23.98;;;14.67;;
60336;SDS011;46978;50.288;28.624;2024-03-06T02:15:53;21.81;;;14.16;;
60336;SDS011;46978;50.288;28.624;2024-03-06T02:16:55;26.59;;;14.39;;
60336;SDS011;46978;50.288;28.624;2024-03-06T02:17:56;23.54;;;14.31;;
60336;SDS011;46978;50.288;28.624;2024-03-06T02:18:59;25.47;;;15.13;;
60336;SDS011;46978;50.288;28.624;2024-03-06T02:20:01;24.01;;;14.33;;
60336;SDS011;46978;50.288;28.624;2024-03-06T02:21:03;24.55;;;14.51;;
60336;SDS011;46978;50.288;28.624;2024-03-06T02:22:05;23.39;;;13.67;;
60336;SDS011;46978;50.288;28.624;2024-03-06T02:23:08;24.72;;;14.42;;
60336;SDS011;46978;50.288;28.624;2024-03-06T02:24:09;23.04;;;14.35;;
60336;SDS011;46978;50.288;28.624;2024-03-06T02:25:11;20.68;;;13.07;;
60336;SDS011;46978;50.288;28.624;2024-03-06T02:26:13;22.37;;;14.20;;
60336;SDS011;46978;50.288;28.624;2024-03-06T02:27:15;25.35;;;13.53;;
60336;SDS011;46978;50.288;28.624;2024-03-06T02:28:17;25.88;;;15.19;;
60336;SDS011;46978;50.288;28.624;2024-03-06T02:29:18;21.91;;;13.78;;
60336;SDS011;46978;50.288;28.624;2024-03-06T02:30:20;20.94;;;13.44;;
60336;SDS011;46978;50.288;28.624;2024-03-06T02:31:22;21.35;;;13.81;;
60336;SDS011;46978;50.288;28.624;2024-03-06T02:32:24;22.67;;;13.66;;
60336;SDS011;46978;50.288;28.624;2024-03-06T02:33:25;25.38;;;14.43;;
60336;SDS011;46978;50.288;28.624;2024-03-06T02:34:27;22.74;;;14.29;;
60336;SDS011;46978;50.288;28.624;2024-03-06T02:35:28;22.66;;;13.39;;
60336;SDS011;46978;50.288;28.624;2024-03-06T02:36:30;24.19;;;13.73;;
60336;SDS011;46978;50.288;28.624;2024-03-06T02:37:32;24.17;;;13.75;;
60336;SDS011;46978;50.288;28.624;2024-03-06T02:38:33;24.65;;;14.05;;
60336;SDS011;46978;50.288;28.624;2024-03-06T02:39:35;22.49;;;13.45;;
60336;SDS011;46978;50.288;28.624;2024-03-06T02:40:37;22.68;;;13.64;;
60336;SDS011;46978;50.288;28.624;2024-03-06T02:41:38;20.53;;;12.70;;
60336;SDS011;46978;50.288;28.624;2024-03-06T02:42:40;22.65;;;13.95;;
60336;SDS011;46978;50.288;28.624;2024-03-06T02:43:42;22.91;;;13.27;;
60336;SDS011;46978;50.288;28.624;2024-03-06T02:44:43;21.94;;;13.55;;
60336;SDS011;46978;50.288;28.624;2024-03-06T02:45:45;21.74;;;13.50;;
60336;SDS011;46978;50.288;28.624;2024-03-06T02:46:47;23.91;;;13.41;;
60336;SDS011;46978;50.288;28.624;2024-03-06T02:47:49;23.59;;;12.22;;
60336;SDS011;46978;50.288;28.624;2024-03-06T02:48:51;21.83;;;13.35;;
60336;SDS011;46978;50.288;28.624;2024-03-06T02:49:53;21.91;;;13.40;;
60336;SDS011;46978;50.288;28.624;2024-03-06T02:50:55;23.44;;;13.54;;
60336;SDS011;46978;50.288;28.624;2024-03-06T02:51:57;24.87;;;13.89;;
60336;SDS011;46978;50.288;28.624;2024-03-06T02:52:58;23.93;;;14.03;;
60336;SDS011;46978;50.288;28.624;2024-03-06T02:54:00;24.87;;;14.18;;
60336;SDS011;46978;50.288;28.624;2024-03-06T02:55:01;24.56;;;14.64;;
60336;SDS011;46978;50.288;28.624;2024-03-06T02:56:04;28.58;;;15.31;;
60336;SDS011;46978;50.288;28.624;2024-03-06T02:57:06;27.45;;;15.19;;
60336;SDS011;46978;50.288;28.624;2024-03-06T02:58:08;23.53;;;13.96;;
60336;SDS011;46978;50.288;28.624;2024-03-06T02:59:09;24.55;;;15.20;;
60336;SDS011;46978;50.288;28.624;2024-03-06T03:00:13;26.09;;;14.84;;
60336;SDS011;46978;50.288;28.624;2024-03-06T03:01:15;25.76;;;15.38;;
60336;SDS011;46978;50.288;28.624;2024-03-06T03:02:16;23.54;;;14.51;;
60336;SDS011;46978;50.288;28.624;2024-03-06T03:03:18;25.72;;;14.42;;
60336;SDS011;46978;50.288;28.624;2024-03-06T03:04:19;25.33;;;13.69;;
60336;SDS011;46978;50.288;28.624;2024-03-06T03:05:21;27.79;;;15.96;;
60336;SDS011;46978;50.288;28.624;2024-03-06T03:07:44;25.52;;;15.40;;
60336;SDS011;46978;50.288;28.624;2024-03-06T03:08:46;25.89;;;15.01;;
60336;SDS011;46978;50.288;28.624;2024-03-06T03:09:47;26.66;;;14.83;;
60336;SDS011;46978;50.288;28.624;2024-03-06T03:10:49;26.09;;;15.07;;
60336;SDS011;46978;50.288;28.624;2024-03-06T03:11:51;26.75;;;15.04;;
60336;SDS011;46978;50.288;28.624;2024-03-06T03:12:52;23.22;;;14.21;;
60336;SDS011;46978;50.288;28.624;2024-03-06T03:13:54;24.54;;;14.65;;
60336;SDS011;46978;50.288;28.624;2024-03-06T03:14:55;26.60;;;14.93;;
60336;SDS011;46978;50.288;28.624;2024-03-06T03:15:57;23.63;;;14.59;;
60336;SDS011;46978;50.288;28.624;2024-03-06T03:17:00;27.64;;;14.84;;
60336;SDS011;46978;50.288;28.624;2024-03-06T03:18:02;25.35;;;14.65;;
60336;SDS011;46978;50.288;28.624;2024-03-06T03:19:03;23.45;;;14.27;;
60336;SDS011;46978;50.288;28.624;2024-03-06T03:20:05;21.67;;;14.18;;
60336;SDS011;46978;50.288;28.624;2024-03-06T03:21:08;25.56;;;14.41;;
60336;SDS011;46978;50.288;28.624;2024-03-06T03:22:10;24.78;;;14.37;;
60336;SDS011;46978;50.288;28.624;2024-03-06T03:23:12;24.49;;;14.16;;
60336;SDS011;46978;50.288;28.624;2024-03-06T03:24:14;25.79;;;13.89;;
60336;SDS011;46978;50.288;28.624;2024-03-06T03:25:15;22.05;;;13.74;;
60336;SDS011;46978;50.288;28.624;2024-03-06T03:26:17;23.41;;;13.47;;
60336;SDS011;46978;50.288;28.624;2024-03-06T03:27:19;22.25;;;14.40;;
60336;SDS011;46978;50.288;28.624;2024-03-06T03:28:20;23.05;;;13.93;;
60336;SDS011;46978;50.288;28.624;2024-03-06T03:29:22;22.79;;;13.89;;
60336;SDS011;46978;50.288;28.624;2024-03-06T03:30:23;27.02;;;14.27;;
60336;SDS011;46978;50.288;28.624;2024-03-06T03:31:25;24.41;;;14.99;;
60336;SDS011;46978;50.288;28.624;2024-03-06T03:32:26;24.26;;;13.39;;
60336;SDS011;46978;50.288;28.624;2024-03-06T03:33:28;22.41;;;13.70;;
60336;SDS011;46978;50.288;28.624;2024-03-06T03:34:30;22.04;;;13.07;;
60336;SDS011;46978;50.288;28.624;2024-03-06T03:35:31;23.57;;;14.15;;
60336;SDS011;46978;50.288;28.624;2024-03-06T03:36:33;22.06;;;13.15;;
60336;SDS011;46978;50.288;28.624;2024-03-06T03:37:34;24.89;;;14.45;;
60336;SDS011;46978;50.288;28.624;2024-03-06T03:38:39;21.20;;;13.01;;
60336;SDS011;46978;50.288;28.624;2024-03-06T03:39:41;21.96;;;12.87;;
60336;SDS011;46978;50.288;28.624;2024-03-06T03:40:45;23.21;;;13.76;;
60336;SDS011;46978;50.288;28.624;2024-03-06T03:41:47;24.44;;;13.46;;
60336;SDS011;46978;50.288;28.624;2024-03-06T03:42:49;22.21;;;13.81;;
60336;SDS011;46978;50.288;28.624;2024-03-06T03:43:51;21.79;;;12.66;;
60336;SDS011;46978;50.288;28.624;2024-03-06T03:44:52;21.28;;;13.93;;
60336;SDS011;46978;50.288;28.624;2024-03-06T03:45:54;22.53;;;13.54;;
60336;SDS011;46978;50.288;28.624;2024-03-06T03:46:56;23.54;;;13.46;;
60336;SDS011;46978;50.288;28.624;2024-03-06T03:47:57;20.51;;;12.68;;
60336;SDS011;46978;50.288;28.624;2024-03-06T03:48:59;22.50;;;13.30;;
60336;SDS011;46978;50.288;28.624;2024-03-06T03:50:00;22.20;;;13.11;;
60336;SDS011;46978;50.288;28.624;2024-03-06T03:51:03;26.56;;;14.17;;
60336;SDS011;46978;50.288;28.624;2024-03-06T03:52:05;25.03;;;13.48;;
60336;SDS011;46978;50.288;28.624;2024-03-06T03:53:06;25.78;;;13.44;;
60336;SDS011;46978;50.288;28.624;2024-03-06T03:54:08;24.27;;;14.76;;
60336;SDS011;46978;50.288;28.624;2024-03-06T03:55:09;21.88;;;13.16;;
60336;SDS011;46978;50.288;28.624;2024-03-06T03:56:11;20.96;;;12.98;;
60336;SDS011;46978;50.288;28.624;2024-03-06T03:57:13;22.62;;;13.27;;
60336;SDS011;46978;50.288;28.624;2024-03-06T03:58:14;24.93;;;14.51;;
60336;SDS011;46978;50.288;28.624;2024-03-06T03:59:16;23.21;;;14.05;;
60336;SDS011;46978;50.288;28.624;2024-03-06T04:00:18;23.07;;;13.94;;
60336;SDS011;46978;50.288;28.624;2024-03-06T04:01:20;22.10;;;13.81;;
60336;SDS011;46978;50.288;28.624;2024-03-06T04:02:22;23.69;;;13.01;;
60336;SDS011;46978;50.288;28.624;2024-03-06T04:03:23;21.56;;;13.56;;
60336;SDS011;46978;50.288;28.624;2024-03-06T04:04:25;22.06;;;13.86;;
60336;SDS011;46978;50.288;28.624;2024-03-06T04:05:26;24.66;;;13.89;;
60336;SDS011;46978;50.288;28.624;2024-03-06T04:06:28;22.04;;;12.50;;
60336;SDS011;46978;50.288;28.624;2024-03-06T04:07:30;22.61;;;13.30;;
60336;SDS011;46978;50.288;28.624;2024-03-06T04:08:31;20.74;;;12.54;;
60336;SDS011;46978;50.288;28.624;2024-03-06T04:09:33;20.29;;;13.25;;
60336;SDS011;46978;50.288;28.624;2024-03-06T04:10:35;22.08;;;12.65;;
60336;SDS011;46978;50.288;28.624;2024-03-06T04:11:37;24.24;;;13.72;;
60336;SDS011;46978;50.288;28.624;2024-03-06T04:12:39;20.85;;;12.87;;
60336;SDS011;46978;50.288;28.624;2024-03-06T04:13:41;20.41;;;12.31;;
60336;SDS011;46978;50.288;28.624;2024-03-06T04:14:42;21.98;;;13.27;;
60336;SDS011;46978;50.288;28.624;2024-03-06T04:15:44;21.38;;;13.18;;
60336;SDS011;46978;50.288;28.624;2024-03-06T04:16:46;23.44;;;13.25;;
60336;SDS011;46978;50.288;28.624;2024-03-06T04:17:47;23.12;;;13.63;;
60336;SDS011;46978;50.288;28.624;2024-03-06T04:18:49;22.36;;;12.31;;
60336;SDS011;46978;50.288;28.624;2024-03-06T04:19:51;24.76;;;13.94;;
60336;SDS011;46978;50.288;28.624;2024-03-06T04:20:52;23.76;;;14.16;;
60336;SDS011;46978;50.288;28.624;2024-03-06T04:21:54;25.01;;;14.43;;
60336;SDS011;46978;50.288;28.624;2024-03-06T04:22:56;24.54;;;14.16;;
60336;SDS011;46978;50.288;28.624;2024-03-06T04:23:57;22.37;;;13.58;;
60336;SDS011;46978;50.288;28.624;2024-03-06T04:24:59;22.99;;;13.70;;
60336;SDS011;46978;50.288;28.624;2024-03-06T04:26:00;22.86;;;14.31;;
60336;SDS011;46978;50.288;28.624;2024-03-06T04:27:02;23.85;;;13.13;;
60336;SDS011;46978;50.288;28.624;2024-03-06T04:28:04;22.95;;;13.41;;
60336;SDS011;46978;50.288;28.624;2024-03-06T04:29:06;23.73;;;12.69;;
60336;SDS011;46978;50.288;28.624;2024-03-06T04:30:09;26.36;;;13.77;;
60336;SDS011;46978;50.288;28.624;2024-03-06T04:31:11;22.39;;;13.12;;
60336;SDS011;46978;50.288;28.624;2024-03-06T04:32:12;25.66;;;15.03;;
60336;SDS011;46978;50.288;28.624;2024-03-06T04:33:14;27.14;;;14.36;;
60336;SDS011;46978;50.288;28.624;2024-03-06T04:34:16;25.86;;;14.31;;
60336;SDS011;46978;50.288;28.624;2024-03-06T04:35:17;26.29;;;14.54;;
60336;SDS011;46978;50.288;28.624;2024-03-06T04:36:19;23.33;;;12.95;;
60336;SDS011;46978;50.288;28.624;2024-03-06T04:37:20;22.64;;;13.26;;
60336;SDS011;46978;50.288;28.624;2024-03-06T04:38:22;21.43;;;13.36;;
60336;SDS011;46978;50.288;28.624;2024-03-06T04:39:23;22.52;;;14.44;;
60336;SDS011;46978;50.288;28.624;2024-03-06T04:40:25;23.15;;;14.16;;
60336;SDS011;46978;50.288;28.624;2024-03-06T04:41:27;23.16;;;13.52;;
60336;SDS011;46978;50.288;28.624;2024-03-06T04:42:29;24.63;;;13.55;;
60336;SDS011;46978;50.288;28.624;2024-03-06T04:43:30;23.51;;;12.08;;
60336;SDS011;46978;50.288;28.624;2024-03-06T04:44:34;23.53;;;12.76;;
60336;SDS011;46978;50.288;28.624;2024-03-06T04:45:37;25.61;;;13.54;;
60336;SDS011;46978;50.288;28.624;2024-03-06T04:46:39;24.31;;;14.42;;
60336;SDS011;46978;50.288;28.624;2024-03-06T04:47:40;22.11;;;12.91;;
60336;SDS011;46978;50.288;28.624;2024-03-06T04:48:42;24.37;;;13.76;;
60336;SDS011;46978;50.288;28.624;2024-03-06T04:49:44;21.34;;;14.08;;
60336;SDS011;46978;50.288;28.624;2024-03-06T04:50:46;24.51;;;13.94;;
60336;SDS011;46978;50.288;28.624;2024-03-06T04:51:47;24.10;;;13.60;;
60336;SDS011;46978;50.288;28.624;2024-03-06T04:52:49;20.98;;;11.48;;
60336;SDS011;46978;50.288;28.624;2024-03-06T04:53:50;22.58;;;12.61;;
60336;SDS011;46978;50.288;28.624;2024-03-06T04:54:52;23.19;;;14.92;;
60336;SDS011;46978;50.288;28.624;2024-03-06T04:55:54;24.38;;;14.37;;
60336;SDS011;46978;50.288;28.624;2024-03-06T04:56:55;26.24;;;14.51;;
60336;SDS011;46978;50.288;28.624;2024-03-06T04:57:57;26.39;;;15.47;;
60336;SDS011;46978;50.288;28.624;2024-03-06T04:58:59;26.99;;;15.38;;
60336;SDS011;46978;50.288;28.624;2024-03-06T05:00:00;31.04;;;15.66;;
60336;SDS011;46978;50.288;28.624;2024-03-06T05:01:02;25.36;;;13.48;;
60336;SDS011;46978;50.288;28.624;2024-03-06T05:02:04;26.65;;;15.20;;
60336;SDS011;46978;50.288;28.624;2024-03-06T05:03:05;24.23;;;14.21;;
60336;SDS011;46978;50.288;28.624;2024-03-06T05:04:07;26.59;;;14.41;;
60336;SDS011;46978;50.288;28.624;2024-03-06T05:05:10;27.81;;;13.86;;
60336;SDS011;46978;50.288;28.624;2024-03-06T05:06:12;22.96;;;13.51;;
60336;SDS011;46978;50.288;28.624;2024-03-06T05:07:13;23.04;;;13.39;;
60336;SDS011;46978;50.288;28.624;2024-03-06T05:08:15;26.69;;;14.54;;
60336;SDS011;46978;50.288;28.624;2024-03-06T05:09:17;25.52;;;13.98;;
60336;SDS011;46978;50.288;28.624;2024-03-06T05:10:18;23.20;;;13.12;;
60336;SDS011;46978;50.288;28.624;2024-03-06T05:11:20;27.09;;;15.14;;
60336;SDS011;46978;50.288;28.624;2024-03-06T05:12:22;24.76;;;15.61;;
60336;SDS011;46978;50.288;28.624;2024-03-06T05:13:24;22.79;;;11.93;;
60336;SDS011;46978;50.288;28.624;2024-03-06T05:14:25;31.31;;;16.56;;
60336;SDS011;46978;50.288;28.624;2024-03-06T05:15:27;30.88;;;14.84;;
60336;SDS011;46978;50.288;28.624;2024-03-06T05:16:29;27.06;;;15.10;;
60336;SDS011;46978;50.288;28.624;2024-03-06T05:17:30;28.15;;;15.54;;
60336;SDS011;46978;50.288;28.624;2024-03-06T05:18:33;27.61;;;14.51;;
60336;SDS011;46978;50.288;28.624;2024-03-06T05:19:35;27.33;;;16.37;;
60336;SDS011;46978;50.288;28.624;2024-03-06T05:20:37;29.15;;;16.39;;
60336;SDS011;46978;50.288;28.624;2024-03-06T05:21:39;26.76;;;14.87;;
60336;SDS011;46978;50.288;28.624;2024-03-06T05:22:40;29.91;;;15.58;;
60336;SDS011;46978;50.288;28.624;2024-03-06T05:23:42;27.68;;;15.57;;
60336;SDS011;46978;50.288;28.624;2024-03-06T05:24:43;25.67;;;14.33;;
60336;SDS011;46978;50.288;28.624;2024-03-06T05:25:45;27.42;;;14.80;;
60336;SDS011;46978;50.288;28.624;2024-03-06T05:26:47;29.43;;;15.09;;
60336;SDS011;46978;50.288;28.624;2024-03-06T05:27:49;24.90;;;14.85;;
60336;SDS011;46978;50.288;28.624;2024-03-06T05:28:50;26.27;;;14.41;;
60336;SDS011;46978;50.288;28.624;2024-03-06T05:29:52;25.74;;;13.05;;
60336;SDS011;46978;50.288;28.624;2024-03-06T05:30:54;26.01;;;12.85;;
60336;SDS011;46978;50.288;28.624;2024-03-06T05:31:55;27.00;;;14.54;;
60336;SDS011;46978;50.288;28.624;2024-03-06T05:32:57;25.19;;;13.58;;
60336;SDS011;46978;50.288;28.624;2024-03-06T05:33:58;22.63;;;14.13;;
60336;SDS011;46978;50.288;28.624;2024-03-06T05:35:00;26.74;;;12.98;;
60336;SDS011;46978;50.288;28.624;2024-03-06T05:36:02;26.33;;;14.65;;
60336;SDS011;46978;50.288;28.624;2024-03-06T05:37:04;25.43;;;14.37;;
60336;SDS011;46978;50.288;28.624;2024-03-06T05:38:06;22.86;;;13.15;;
60336;SDS011;46978;50.288;28.624;2024-03-06T05:39:08;22.44;;;13.26;;
60336;SDS011;46978;50.288;28.624;2024-03-06T05:40:11;25.55;;;14.43;;
60336;SDS011;46978;50.288;28.624;2024-03-06T05:41:13;23.62;;;14.13;;
60336;SDS011;46978;50.288;28.624;2024-03-06T05:42:14;23.16;;;14.03;;
60336;SDS011;46978;50.288;28.624;2024-03-06T05:43:16;25.39;;;14.04;;
60336;SDS011;46978;50.288;28.624;2024-03-06T05:44:18;25.05;;;14.06;;
60336;SDS011;46978;50.288;28.624;2024-03-06T05:45:19;22.13;;;14.11;;
60336;SDS011;46978;50.288;28.624;2024-03-06T05:46:21;25.03;;;13.94;;
60336;SDS011;46978;50.288;28.624;2024-03-06T05:47:22;28.14;;;14.75;;
60336;SDS011;46978;50.288;28.624;2024-03-06T05:48:24;25.96;;;13.71;;
60336;SDS011;46978;50.288;28.624;2024-03-06T05:49:26;23.51;;;14.90;;
60336;SDS011;46978;50.288;28.624;2024-03-06T05:50:28;25.07;;;14.91;;
60336;SDS011;46978;50.288;28.624;2024-03-06T05:51:29;28.61;;;14.96;;
60336;SDS011;46978;50.288;28.624;2024-03-06T05:52:32;26.69;;;14.35;;
60336;SDS011;46978;50.288;28.624;2024-03-06T05:53:38;26.67;;;14.67;;
60336;SDS011;46978;50.288;28.624;2024-03-06T05:54:38;21.94;;;13.04;;
60336;SDS011;46978;50.288;28.624;2024-03-06T05:55:40;26.51;;;15.14;;
60336;SDS011;46978;50.288;28.624;2024-03-06T05:56:41;25.15;;;14.57;;
60336;SDS011;46978;50.288;28.624;2024-03-06T05:57:43;26.90;;;15.66;;
60336;SDS011;46978;50.288;28.624;2024-03-06T05:58:45;26.92;;;14.81;;